Accueil
METAR-TAF:

METAR-TAF

Aéroports :

Aéroport international Fuaʻamotu

Tongatapu, Tonga

latitude: 21-14S, longitude: 175-09W, altitude: 38 m

Observation

Le bulletin a été fait il y a 28 minutes, à 13:00 UTC
Vent calme
Température 24°C
Humidité 100%
Pression 1009 hPa
Visibilité 10 km ou plus
Quelques nuages à une hauteur de 2000 ft

METAR: NFTF 161300Z 00000KT 9999 FEW020 24/24 Q1009 RMK GRASS DEW

Heure: 02:28 (13:28 UTC)

Prévision

Le bulletin a été fait il y a 2 heures et 9 minutes, à 11:19 UTC
Prévision valable du 16 à 12 UTC au 17 à 12 UTC
Vent 5 kt de est/nord-est
Visibilité 10 km ou plus
Quelques nuages à une hauteur de 1800 ft

TAF: NFTF 161119Z 1612/1712 07005KT 9999 FEW018

Observations et prévisions météorologiques de plus de 4000 aéroports (messages METAR et TAF).

Les stations disponibles sont représentées par des disques jaunes et rouges sur la carte.

Passer la souris dessus pour voir le nom de la station.

Cliquer dessus pour voir les observations et prévisions météorologiques.

Pour changer de carte: cliquez sur les boutons verts avec une croix noire pour zoomer, sur le bouton vert avec un tiret pour effectuer un zoom arrière, ou sur les flèches vertes pour les cartes adjacentes.


METAR-TAF: